sensor_id;sensor_type;location;lat;lon;timestamp;pressure;altitude;pressure_sealevel;temperature
12409;BMP180;6268;48.188;17.134;2022-09-24T00:01:32;49637.13;;;-134.68
12409;BMP180;6268;48.188;17.134;2022-09-24T00:04:05;49637.13;;;-134.68
12409;BMP180;6268;48.188;17.134;2022-09-24T00:06:38;49639.06;;;-134.68
12409;BMP180;6268;48.188;17.134;2022-09-24T00:09:07;49635.19;;;-134.68
12409;BMP180;6268;48.188;17.134;2022-09-24T00:11:38;49637.13;;;-134.68
12409;BMP180;6268;48.188;17.134;2022-09-24T00:14:07;49635.19;;;-134.68
12409;BMP180;6268;48.188;17.134;2022-09-24T00:16:38;49635.19;;;-134.68
12409;BMP180;6268;48.188;17.134;2022-09-24T00:19:10;49637.13;;;-134.68
12409;BMP180;6268;48.188;17.134;2022-09-24T00:21:42;49637.13;;;-134.68
12409;BMP180;6268;48.188;17.134;2022-09-24T00:24:14;49633.25;;;-134.68
12409;BMP180;6268;48.188;17.134;2022-09-24T00:27:05;49639.06;;;-134.68
12409;BMP180;6268;48.188;17.134;2022-09-24T00:29:33;49635.19;;;-134.68
12409;BMP180;6268;48.188;17.134;2022-09-24T00:32:04;49635.19;;;-134.68
12409;BMP180;6268;48.188;17.134;2022-09-24T00:34:34;49639.06;;;-134.68
12409;BMP180;6268;48.188;17.134;2022-09-24T00:37:03;49639.06;;;-134.68
12409;BMP180;6268;48.188;17.134;2022-09-24T00:39:31;49635.19;;;-134.68
12409;BMP180;6268;48.188;17.134;2022-09-24T00:42:00;49635.19;;;-134.68
12409;BMP180;6268;48.188;17.134;2022-09-24T00:44:55;49639.06;;;-134.68
12409;BMP180;6268;48.188;17.134;2022-09-24T00:47:30;49637.13;;;-134.68
12409;BMP180;6268;48.188;17.134;2022-09-24T00:50:18;49635.19;;;-134.68
12409;BMP180;6268;48.188;17.134;2022-09-24T00:52:53;49637.13;;;-134.68
12409;BMP180;6268;48.188;17.134;2022-09-24T00:55:25;49637.13;;;-134.68
12409;BMP180;6268;48.188;17.134;2022-09-24T00:57:58;49633.25;;;-134.68
12409;BMP180;6268;48.188;17.134;2022-09-24T01:00:28;49637.13;;;-134.68
12409;BMP180;6268;48.188;17.134;2022-09-24T01:03:01;49635.19;;;-134.68
12409;BMP180;6268;48.188;17.134;2022-09-24T01:05:34;49635.19;;;-134.68
12409;BMP180;6268;48.188;17.134;2022-09-24T01:08:05;49637.13;;;-134.68
12409;BMP180;6268;48.188;17.134;2022-09-24T01:10:48;49641.00;;;-134.68
12409;BMP180;6268;48.188;17.134;2022-09-24T01:13:35;49635.19;;;-134.68
12409;BMP180;6268;48.188;17.134;2022-09-24T01:16:21;49635.19;;;-134.68
12409;BMP180;6268;48.188;17.134;2022-09-24T01:19:05;49635.19;;;-134.68
12409;BMP180;6268;48.188;17.134;2022-09-24T01:21:45;49637.13;;;-134.68
12409;BMP180;6268;48.188;17.134;2022-09-24T01:24:54;49639.06;;;-134.68
12409;BMP180;6268;48.188;17.134;2022-09-24T01:27:43;49635.19;;;-134.68
12409;BMP180;6268;48.188;17.134;2022-09-24T01:30:20;49637.13;;;-134.68
12409;BMP180;6268;48.188;17.134;2022-09-24T01:32:52;49637.13;;;-134.68
12409;BMP180;6268;48.188;17.134;2022-09-24T01:35:28;49637.13;;;-134.68
12409;BMP180;6268;48.188;17.134;2022-09-24T01:38:03;49637.13;;;-134.68
12409;BMP180;6268;48.188;17.134;2022-09-24T01:40:35;49639.06;;;-134.68
12409;BMP180;6268;48.188;17.134;2022-09-24T01:43:08;49637.13;;;-134.68
12409;BMP180;6268;48.188;17.134;2022-09-24T01:45:39;49637.13;;;-134.68
12409;BMP180;6268;48.188;17.134;2022-09-24T01:48:09;49635.19;;;-134.68
12409;BMP180;6268;48.188;17.134;2022-09-24T01:50:43;49635.19;;;-134.68
12409;BMP180;6268;48.188;17.134;2022-09-24T01:53:19;49637.13;;;-134.68
12409;BMP180;6268;48.188;17.134;2022-09-24T01:55:53;49639.06;;;-134.68
12409;BMP180;6268;48.188;17.134;2022-09-24T01:58:30;49637.13;;;-134.68
12409;BMP180;6268;48.188;17.134;2022-09-24T02:01:07;49635.19;;;-134.68
12409;BMP180;6268;48.188;17.134;2022-09-24T02:03:43;49635.19;;;-134.68
12409;BMP180;6268;48.188;17.134;2022-09-24T02:06:17;49637.13;;;-134.68
12409;BMP180;6268;48.188;17.134;2022-09-24T02:08:47;49637.13;;;-134.68
12409;BMP180;6268;48.188;17.134;2022-09-24T02:11:19;49639.06;;;-134.68
12409;BMP180;6268;48.188;17.134;2022-09-24T02:13:56;49637.13;;;-134.68
12409;BMP180;6268;48.188;17.134;2022-09-24T02:16:33;49639.06;;;-134.68
12409;BMP180;6268;48.188;17.134;2022-09-24T02:19:08;49635.19;;;-134.68
12409;BMP180;6268;48.188;17.134;2022-09-24T02:21:40;49637.13;;;-134.68
12409;BMP180;6268;48.188;17.134;2022-09-24T02:24:14;49635.19;;;-134.68
12409;BMP180;6268;48.188;17.134;2022-09-24T02:26:44;49637.13;;;-134.68
12409;BMP180;6268;48.188;17.134;2022-09-24T02:29:13;49635.19;;;-134.68
12409;BMP180;6268;48.188;17.134;2022-09-24T02:31:48;49635.19;;;-134.68
12409;BMP180;6268;48.188;17.134;2022-09-24T02:34:21;49639.06;;;-134.68
12409;BMP180;6268;48.188;17.134;2022-09-24T02:36:54;49641.00;;;-134.68
12409;BMP180;6268;48.188;17.134;2022-09-24T02:39:26;49637.13;;;-134.68
12409;BMP180;6268;48.188;17.134;2022-09-24T02:41:55;49633.25;;;-134.68
12409;BMP180;6268;48.188;17.134;2022-09-24T02:44:25;49637.13;;;-134.68
12409;BMP180;6268;48.188;17.134;2022-09-24T02:46:56;49637.13;;;-134.68
12409;BMP180;6268;48.188;17.134;2022-09-24T02:49:25;49639.06;;;-134.68
12409;BMP180;6268;48.188;17.134;2022-09-24T02:51:54;49635.19;;;-134.68
12409;BMP180;6268;48.188;17.134;2022-09-24T02:54:23;49637.13;;;-134.68
12409;BMP180;6268;48.188;17.134;2022-09-24T02:56:52;49635.19;;;-134.68
12409;BMP180;6268;48.188;17.134;2022-09-24T02:59:21;49641.00;;;-134.68
12409;BMP180;6268;48.188;17.134;2022-09-24T03:01:50;49635.19;;;-134.68
12409;BMP180;6268;48.188;17.134;2022-09-24T03:04:20;49637.13;;;-134.68
12409;BMP180;6268;48.188;17.134;2022-09-24T03:06:48;49637.13;;;-134.68
12409;BMP180;6268;48.188;17.134;2022-09-24T03:09:17;49635.19;;;-134.68
12409;BMP180;6268;48.188;17.134;2022-09-24T03:11:46;49637.13;;;-134.68
12409;BMP180;6268;48.188;17.134;2022-09-24T03:14:14;49639.06;;;-134.68
12409;BMP180;6268;48.188;17.134;2022-09-24T03:16:43;49637.13;;;-134.68
12409;BMP180;6268;48.188;17.134;2022-09-24T03:19:11;49635.19;;;-134.68
12409;BMP180;6268;48.188;17.134;2022-09-24T03:21:41;49637.13;;;-134.68
12409;BMP180;6268;48.188;17.134;2022-09-24T03:24:10;49637.13;;;-134.68
12409;BMP180;6268;48.188;17.134;2022-09-24T03:26:39;49635.19;;;-134.68
12409;BMP180;6268;48.188;17.134;2022-09-24T03:29:08;49639.06;;;-134.68
12409;BMP180;6268;48.188;17.134;2022-09-24T03:31:37;49635.19;;;-134.68
12409;BMP180;6268;48.188;17.134;2022-09-24T03:34:05;49635.19;;;-134.68
12409;BMP180;6268;48.188;17.134;2022-09-24T03:36:34;49635.19;;;-134.68
12409;BMP180;6268;48.188;17.134;2022-09-24T03:39:03;49637.13;;;-134.68
12409;BMP180;6268;48.188;17.134;2022-09-24T03:41:32;49637.13;;;-134.68
12409;BMP180;6268;48.188;17.134;2022-09-24T03:44:01;49635.19;;;-134.68
12409;BMP180;6268;48.188;17.134;2022-09-24T03:46:30;49637.13;;;-134.68
12409;BMP180;6268;48.188;17.134;2022-09-24T03:48:58;49635.19;;;-134.68
12409;BMP180;6268;48.188;17.134;2022-09-24T03:51:27;49639.06;;;-134.68
12409;BMP180;6268;48.188;17.134;2022-09-24T03:53:56;49635.19;;;-134.68
12409;BMP180;6268;48.188;17.134;2022-09-24T03:56:26;49635.19;;;-134.68
12409;BMP180;6268;48.188;17.134;2022-09-24T03:58:54;49633.25;;;-134.68
12409;BMP180;6268;48.188;17.134;2022-09-24T04:01:23;49635.19;;;-134.68
12409;BMP180;6268;48.188;17.134;2022-09-24T04:03:52;49639.06;;;-134.68
12409;BMP180;6268;48.188;17.134;2022-09-24T04:06:21;49635.19;;;-134.68
12409;BMP180;6268;48.188;17.134;2022-09-24T04:08:52;49637.13;;;-134.68
12409;BMP180;6268;48.188;17.134;2022-09-24T04:11:22;49635.19;;;-134.68
12409;BMP180;6268;48.188;17.134;2022-09-24T04:13:52;49639.06;;;-134.68
12409;BMP180;6268;48.188;17.134;2022-09-24T04:16:21;49637.13;;;-134.68
12409;BMP180;6268;48.188;17.134;2022-09-24T04:18:50;49637.13;;;-134.68
12409;BMP180;6268;48.188;17.134;2022-09-24T04:21:18;49639.06;;;-134.68
12409;BMP180;6268;48.188;17.134;2022-09-24T04:23:47;49637.13;;;-134.68
12409;BMP180;6268;48.188;17.134;2022-09-24T04:26:16;49633.25;;;-134.68
12409;BMP180;6268;48.188;17.134;2022-09-24T04:28:45;49639.06;;;-134.68
12409;BMP180;6268;48.188;17.134;2022-09-24T04:31:17;49635.19;;;-134.68
12409;BMP180;6268;48.188;17.134;2022-09-24T04:33:46;49635.19;;;-134.68
12409;BMP180;6268;48.188;17.134;2022-09-24T04:36:15;49635.19;;;-134.68
12409;BMP180;6268;48.188;17.134;2022-09-24T04:38:44;49635.19;;;-134.68
12409;BMP180;6268;48.188;17.134;2022-09-24T04:41:13;49635.19;;;-134.68
12409;BMP180;6268;48.188;17.134;2022-09-24T04:43:43;49637.13;;;-134.68
12409;BMP180;6268;48.188;17.134;2022-09-24T04:46:13;49637.13;;;-134.68
12409;BMP180;6268;48.188;17.134;2022-09-24T04:48:43;49637.13;;;-134.68
12409;BMP180;6268;48.188;17.134;2022-09-24T04:51:11;49635.19;;;-134.68
12409;BMP180;6268;48.188;17.134;2022-09-24T04:53:40;49637.13;;;-134.68
12409;BMP180;6268;48.188;17.134;2022-09-24T04:56:09;49635.19;;;-134.68
12409;BMP180;6268;48.188;17.134;2022-09-24T04:58:38;49635.19;;;-134.68
12409;BMP180;6268;48.188;17.134;2022-09-24T05:01:08;49637.13;;;-134.68
12409;BMP180;6268;48.188;17.134;2022-09-24T05:03:36;49641.00;;;-134.68
12409;BMP180;6268;48.188;17.134;2022-09-24T05:06:06;49641.00;;;-134.68
12409;BMP180;6268;48.188;17.134;2022-09-24T05:08:35;49639.06;;;-134.68
12409;BMP180;6268;48.188;17.134;2022-09-24T05:11:04;49639.06;;;-134.68
12409;BMP180;6268;48.188;17.134;2022-09-24T05:13:33;49639.06;;;-134.68
12409;BMP180;6268;48.188;17.134;2022-09-24T05:16:02;49639.06;;;-134.68
12409;BMP180;6268;48.188;17.134;2022-09-24T05:18:31;49642.94;;;-134.68
12409;BMP180;6268;48.188;17.134;2022-09-24T05:20:59;49641.00;;;-134.68
12409;BMP180;6268;48.188;17.134;2022-09-24T05:23:29;49639.06;;;-134.68
12409;BMP180;6268;48.188;17.134;2022-09-24T05:25:58;49639.06;;;-134.68
12409;BMP180;6268;48.188;17.134;2022-09-24T05:28:44;49639.06;;;-134.68
12409;BMP180;6268;48.188;17.134;2022-09-24T05:31:13;49637.13;;;-134.68
12409;BMP180;6268;48.188;17.134;2022-09-24T05:33:43;49639.06;;;-134.68
12409;BMP180;6268;48.188;17.134;2022-09-24T05:36:12;49639.06;;;-134.68
12409;BMP180;6268;48.188;17.134;2022-09-24T05:38:42;49642.94;;;-134.68
12409;BMP180;6268;48.188;17.134;2022-09-24T05:41:11;49641.00;;;-134.68
12409;BMP180;6268;48.188;17.134;2022-09-24T05:43:39;49637.13;;;-134.68
12409;BMP180;6268;48.188;17.134;2022-09-24T05:46:08;49639.06;;;-134.68
12409;BMP180;6268;48.188;17.134;2022-09-24T05:48:37;49639.06;;;-134.68
12409;BMP180;6268;48.188;17.134;2022-09-24T05:51:05;49639.06;;;-134.68
12409;BMP180;6268;48.188;17.134;2022-09-24T05:53:34;49641.00;;;-134.68
12409;BMP180;6268;48.188;17.134;2022-09-24T05:56:05;49641.00;;;-134.68
12409;BMP180;6268;48.188;17.134;2022-09-24T05:58:34;49639.06;;;-134.68
12409;BMP180;6268;48.188;17.134;2022-09-24T06:01:03;49642.94;;;-134.68
12409;BMP180;6268;48.188;17.134;2022-09-24T06:03:31;49639.06;;;-134.68
12409;BMP180;6268;48.188;17.134;2022-09-24T06:06:00;49641.00;;;-134.68
12409;BMP180;6268;48.188;17.134;2022-09-24T06:08:30;49639.06;;;-134.68
12409;BMP180;6268;48.188;17.134;2022-09-24T06:11:00;49639.06;;;-134.68
12409;BMP180;6268;48.188;17.134;2022-09-24T06:13:31;49641.00;;;-134.68
12409;BMP180;6268;48.188;17.134;2022-09-24T06:16:02;49639.06;;;-134.68
12409;BMP180;6268;48.188;17.134;2022-09-24T06:18:32;49639.06;;;-134.68
12409;BMP180;6268;48.188;17.134;2022-09-24T06:21:03;49639.06;;;-134.68
12409;BMP180;6268;48.188;17.134;2022-09-24T06:23:34;49637.13;;;-134.68
12409;BMP180;6268;48.188;17.134;2022-09-24T06:26:06;49639.06;;;-134.68
12409;BMP180;6268;48.188;17.134;2022-09-24T06:28:37;49637.13;;;-134.68
12409;BMP180;6268;48.188;17.134;2022-09-24T06:31:08;49639.06;;;-134.68
12409;BMP180;6268;48.188;17.134;2022-09-24T06:33:38;49639.06;;;-134.68
12409;BMP180;6268;48.188;17.134;2022-09-24T06:36:08;49642.94;;;-134.68
12409;BMP180;6268;48.188;17.134;2022-09-24T06:38:37;49642.94;;;-134.68
12409;BMP180;6268;48.188;17.134;2022-09-24T06:41:08;49639.06;;;-134.68
12409;BMP180;6268;48.188;17.134;2022-09-24T06:43:38;49639.06;;;-134.68
12409;BMP180;6268;48.188;17.134;2022-09-24T06:46:07;49641.00;;;-134.68
12409;BMP180;6268;48.188;17.134;2022-09-24T06:48:36;49641.00;;;-134.68
12409;BMP180;6268;48.188;17.134;2022-09-24T06:51:06;49642.94;;;-134.68
12409;BMP180;6268;48.188;17.134;2022-09-24T06:53:35;49641.00;;;-134.68
12409;BMP180;6268;48.188;17.134;2022-09-24T06:56:04;49641.00;;;-134.68
12409;BMP180;6268;48.188;17.134;2022-09-24T06:58:33;49642.94;;;-134.68
12409;BMP180;6268;48.188;17.134;2022-09-24T07:01:06;49642.94;;;-134.68
12409;BMP180;6268;48.188;17.134;2022-09-24T07:03:35;49642.94;;;-134.68
12409;BMP180;6268;48.188;17.134;2022-09-24T07:06:06;49644.88;;;-134.68
12409;BMP180;6268;48.188;17.134;2022-09-24T07:08:34;49642.94;;;-134.68
12409;BMP180;6268;48.188;17.134;2022-09-24T07:11:03;49642.94;;;-134.68
12409;BMP180;6268;48.188;17.134;2022-09-24T07:13:32;49642.94;;;-134.68
12409;BMP180;6268;48.188;17.134;2022-09-24T07:16:02;49642.94;;;-134.68
12409;BMP180;6268;48.188;17.134;2022-09-24T07:18:31;49642.94;;;-134.68
12409;BMP180;6268;48.188;17.134;2022-09-24T07:21:09;49639.06;;;-134.68
12409;BMP180;6268;48.188;17.134;2022-09-24T07:23:37;49642.94;;;-134.68
12409;BMP180;6268;48.188;17.134;2022-09-24T07:26:06;49644.88;;;-134.68
12409;BMP180;6268;48.188;17.134;2022-09-24T07:28:35;49641.00;;;-134.68
12409;BMP180;6268;48.188;17.134;2022-09-24T07:31:03;49642.94;;;-134.68
12409;BMP180;6268;48.188;17.134;2022-09-24T07:33:32;49642.94;;;-134.68
12409;BMP180;6268;48.188;17.134;2022-09-24T07:36:04;49644.88;;;-134.68
12409;BMP180;6268;48.188;17.134;2022-09-24T07:38:35;49639.06;;;-134.68
12409;BMP180;6268;48.188;17.134;2022-09-24T07:41:04;49641.00;;;-134.68
12409;BMP180;6268;48.188;17.134;2022-09-24T07:43:35;49641.00;;;-134.68
12409;BMP180;6268;48.188;17.134;2022-09-24T07:46:04;49642.94;;;-134.68
12409;BMP180;6268;48.188;17.134;2022-09-24T07:48:33;49642.94;;;-134.68
12409;BMP180;6268;48.188;17.134;2022-09-24T07:51:02;49644.88;;;-134.68
12409;BMP180;6268;48.188;17.134;2022-09-24T07:53:32;49644.88;;;-134.68
12409;BMP180;6268;48.188;17.134;2022-09-24T07:56:02;49642.94;;;-134.68
12409;BMP180;6268;48.188;17.134;2022-09-24T07:58:31;49642.94;;;-134.68
12409;BMP180;6268;48.188;17.134;2022-09-24T08:01:00;49642.94;;;-134.68
12409;BMP180;6268;48.188;17.134;2022-09-24T08:03:29;49642.94;;;-134.68
12409;BMP180;6268;48.188;17.134;2022-09-24T08:05:58;49646.84;;;-134.68
12409;BMP180;6268;48.188;17.134;2022-09-24T08:08:28;49642.94;;;-134.68
12409;BMP180;6268;48.188;17.134;2022-09-24T08:10:56;49642.94;;;-134.68
12409;BMP180;6268;48.188;17.134;2022-09-24T08:13:26;49642.94;;;-134.68
12409;BMP180;6268;48.188;17.134;2022-09-24T08:15:56;49639.06;;;-134.68
12409;BMP180;6268;48.188;17.134;2022-09-24T08:18:27;49642.94;;;-134.68
12409;BMP180;6268;48.188;17.134;2022-09-24T08:20:58;49644.88;;;-134.68
12409;BMP180;6268;48.188;17.134;2022-09-24T08:23:31;49644.88;;;-134.68
12409;BMP180;6268;48.188;17.134;2022-09-24T08:26:00;49642.94;;;-134.68
12409;BMP180;6268;48.188;17.134;2022-09-24T08:28:30;49646.84;;;-134.68
12409;BMP180;6268;48.188;17.134;2022-09-24T08:31:00;49642.94;;;-134.68
12409;BMP180;6268;48.188;17.134;2022-09-24T08:33:32;49644.88;;;-134.68
12409;BMP180;6268;48.188;17.134;2022-09-24T08:36:02;49642.94;;;-134.68
12409;BMP180;6268;48.188;17.134;2022-09-24T08:38:32;49644.88;;;-134.68
12409;BMP180;6268;48.188;17.134;2022-09-24T08:41:16;49641.00;;;-134.68
12409;BMP180;6268;48.188;17.134;2022-09-24T08:44:00;49642.94;;;-134.68
12409;BMP180;6268;48.188;17.134;2022-09-24T08:46:37;49642.94;;;-134.68
12409;BMP180;6268;48.188;17.134;2022-09-24T08:49:29;49644.88;;;-134.68
12409;BMP180;6268;48.188;17.134;2022-09-24T08:52:27;49641.00;;;-134.68
12409;BMP180;6268;48.188;17.134;2022-09-24T08:55:00;49641.00;;;-134.68
12409;BMP180;6268;48.188;17.134;2022-09-24T08:57:35;49642.94;;;-134.68
12409;BMP180;6268;48.188;17.134;2022-09-24T09:00:12;49642.94;;;-134.68
12409;BMP180;6268;48.188;17.134;2022-09-24T09:02:50;49644.88;;;-134.68
12409;BMP180;6268;48.188;17.134;2022-09-24T09:05:38;49644.88;;;-134.68
12409;BMP180;6268;48.188;17.134;2022-09-24T09:08:25;49642.94;;;-134.68
12409;BMP180;6268;48.188;17.134;2022-09-24T09:11:22;49642.94;;;-134.68
12409;BMP180;6268;48.188;17.134;2022-09-24T09:13:58;49642.94;;;-134.68
12409;BMP180;6268;48.188;17.134;2022-09-24T09:16:38;49641.00;;;-134.68
12409;BMP180;6268;48.188;17.134;2022-09-24T09:19:13;49642.94;;;-134.68
12409;BMP180;6268;48.188;17.134;2022-09-24T09:21:49;49644.88;;;-134.68
12409;BMP180;6268;48.188;17.134;2022-09-24T09:24:26;49646.84;;;-134.68
12409;BMP180;6268;48.188;17.134;2022-09-24T09:26:58;49646.84;;;-134.68
12409;BMP180;6268;48.188;17.134;2022-09-24T09:29:27;49642.94;;;-134.68
12409;BMP180;6268;48.188;17.134;2022-09-24T09:32:09;49642.94;;;-134.68
12409;BMP180;6268;48.188;17.134;2022-09-24T09:34:54;49644.88;;;-134.68
12409;BMP180;6268;48.188;17.134;2022-09-24T09:37:31;49644.88;;;-134.68
12409;BMP180;6268;48.188;17.134;2022-09-24T09:40:21;49644.88;;;-134.68
12409;BMP180;6268;48.188;17.134;2022-09-24T09:43:03;49642.94;;;-134.68
12409;BMP180;6268;48.188;17.134;2022-09-24T09:45:40;49644.88;;;-134.68
12409;BMP180;6268;48.188;17.134;2022-09-24T09:48:13;49642.94;;;-134.68
12409;BMP180;6268;48.188;17.134;2022-09-24T09:50:47;49644.88;;;-134.68
12409;BMP180;6268;48.188;17.134;2022-09-24T09:53:22;49642.94;;;-134.68
12409;BMP180;6268;48.188;17.134;2022-09-24T09:55:53;49642.94;;;-134.68
12409;BMP180;6268;48.188;17.134;2022-09-24T09:58:24;49642.94;;;-134.68
12409;BMP180;6268;48.188;17.134;2022-09-24T10:01:06;49644.88;;;-134.68
12409;BMP180;6268;48.188;17.134;2022-09-24T10:03:48;49646.84;;;-134.68
12409;BMP180;6268;48.188;17.134;2022-09-24T10:06:24;49642.94;;;-134.68
12409;BMP180;6268;48.188;17.134;2022-09-24T10:09:05;49644.88;;;-134.68
12409;BMP180;6268;48.188;17.134;2022-09-24T10:11:35;49644.88;;;-134.68
12409;BMP180;6268;48.188;17.134;2022-09-24T10:14:05;49642.94;;;-134.68
12409;BMP180;6268;48.188;17.134;2022-09-24T10:16:39;49644.88;;;-134.68
12409;BMP180;6268;48.188;17.134;2022-09-24T10:19:19;49644.88;;;-134.68
12409;BMP180;6268;48.188;17.134;2022-09-24T10:21:50;49644.88;;;-134.68
12409;BMP180;6268;48.188;17.134;2022-09-24T10:24:24;49644.88;;;-134.68
12409;BMP180;6268;48.188;17.134;2022-09-24T10:26:53;49642.94;;;-134.68
12409;BMP180;6268;48.188;17.134;2022-09-24T10:29:26;49642.94;;;-134.68
12409;BMP180;6268;48.188;17.134;2022-09-24T10:32:17;49642.94;;;-134.68
12409;BMP180;6268;48.188;17.134;2022-09-24T10:34:56;49642.94;;;-134.68
12409;BMP180;6268;48.188;17.134;2022-09-24T10:37:26;49642.94;;;-134.68
12409;BMP180;6268;48.188;17.134;2022-09-24T10:40:00;49642.94;;;-134.68
12409;BMP180;6268;48.188;17.134;2022-09-24T10:42:30;49642.94;;;-134.68
12409;BMP180;6268;48.188;17.134;2022-09-24T10:45:00;49642.94;;;-134.68
12409;BMP180;6268;48.188;17.134;2022-09-24T10:47:39;49642.94;;;-134.68
12409;BMP180;6268;48.188;17.134;2022-09-24T10:50:25;49641.00;;;-134.68
12409;BMP180;6268;48.188;17.134;2022-09-24T10:52:59;49642.94;;;-134.68
12409;BMP180;6268;48.188;17.134;2022-09-24T10:55:47;49641.00;;;-134.68
12409;BMP180;6268;48.188;17.134;2022-09-24T10:58:47;49642.94;;;-134.68
12409;BMP180;6268;48.188;17.134;2022-09-24T11:01:28;49642.94;;;-134.68
12409;BMP180;6268;48.188;17.134;2022-09-24T11:04:25;49639.06;;;-134.68
12409;BMP180;6268;48.188;17.134;2022-09-24T11:07:28;49642.94;;;-134.68
12409;BMP180;6268;48.188;17.134;2022-09-24T11:10:13;49642.94;;;-134.68
12409;BMP180;6268;48.188;17.134;2022-09-24T11:13:00;49642.94;;;-134.68
12409;BMP180;6268;48.188;17.134;2022-09-24T11:15:59;49642.94;;;-134.68
12409;BMP180;6268;48.188;17.134;2022-09-24T11:18:45;49641.00;;;-134.68
12409;BMP180;6268;48.188;17.134;2022-09-24T11:21:37;49644.88;;;-134.68
12409;BMP180;6268;48.188;17.134;2022-09-24T11:24:38;49644.88;;;-134.68
12409;BMP180;6268;48.188;17.134;2022-09-24T11:30:21;49642.94;;;-134.68
12409;BMP180;6268;48.188;17.134;2022-09-24T11:33:11;49641.00;;;-134.68
12409;BMP180;6268;48.188;17.134;2022-09-24T11:36:09;49642.94;;;-134.68
12409;BMP180;6268;48.188;17.134;2022-09-24T11:39:01;49642.94;;;-134.68
12409;BMP180;6268;48.188;17.134;2022-09-24T11:41:46;49642.94;;;-134.68
12409;BMP180;6268;48.188;17.134;2022-09-24T11:47:52;49642.94;;;-134.68
12409;BMP180;6268;48.188;17.134;2022-09-24T11:50:42;49641.00;;;-134.68
12409;BMP180;6268;48.188;17.134;2022-09-24T11:53:24;49641.00;;;-134.68
12409;BMP180;6268;48.188;17.134;2022-09-24T11:55:58;49641.00;;;-134.68
12409;BMP180;6268;48.188;17.134;2022-09-24T11:58:34;49642.94;;;-134.68
12409;BMP180;6268;48.188;17.134;2022-09-24T12:01:13;49642.94;;;-134.68
12409;BMP180;6268;48.188;17.134;2022-09-24T12:03:51;49641.00;;;-134.68
12409;BMP180;6268;48.188;17.134;2022-09-24T12:06:30;49642.94;;;-134.68
12409;BMP180;6268;48.188;17.134;2022-09-24T12:09:16;49642.94;;;-134.68
12409;BMP180;6268;48.188;17.134;2022-09-24T12:11:52;49641.00;;;-134.68
12409;BMP180;6268;48.188;17.134;2022-09-24T12:14:30;49644.88;;;-134.68
12409;BMP180;6268;48.188;17.134;2022-09-24T12:17:09;49644.88;;;-134.68
12409;BMP180;6268;48.188;17.134;2022-09-24T12:19:50;49642.94;;;-134.68
12409;BMP180;6268;48.188;17.134;2022-09-24T12:22:22;49642.94;;;-134.68
12409;BMP180;6268;48.188;17.134;2022-09-24T12:24:53;49642.94;;;-134.68
12409;BMP180;6268;48.188;17.134;2022-09-24T12:27:33;49644.88;;;-134.68
12409;BMP180;6268;48.188;17.134;2022-09-24T12:30:19;49642.94;;;-134.68
12409;BMP180;6268;48.188;17.134;2022-09-24T12:33:14;49644.88;;;-134.68
12409;BMP180;6268;48.188;17.134;2022-09-24T12:36:01;49641.00;;;-134.68
12409;BMP180;6268;48.188;17.134;2022-09-24T12:38:37;49644.88;;;-134.68
12409;BMP180;6268;48.188;17.134;2022-09-24T12:41:22;49639.06;;;-134.68
12409;BMP180;6268;48.188;17.134;2022-09-24T12:43:58;49642.94;;;-134.68
12409;BMP180;6268;48.188;17.134;2022-09-24T12:46:37;49641.00;;;-134.68
12409;BMP180;6268;48.188;17.134;2022-09-24T12:49:21;49641.00;;;-134.68
12409;BMP180;6268;48.188;17.134;2022-09-24T12:51:54;49642.94;;;-134.68
12409;BMP180;6268;48.188;17.134;2022-09-24T12:54:28;49642.94;;;-134.68
12409;BMP180;6268;48.188;17.134;2022-09-24T12:57:12;49644.88;;;-134.68
12409;BMP180;6268;48.188;17.134;2022-09-24T12:59:51;49641.00;;;-134.68
12409;BMP180;6268;48.188;17.134;2022-09-24T13:02:25;49644.88;;;-134.68
12409;BMP180;6268;48.188;17.134;2022-09-24T13:05:17;49639.06;;;-134.68
12409;BMP180;6268;48.188;17.134;2022-09-24T13:07:57;49641.00;;;-134.68
12409;BMP180;6268;48.188;17.134;2022-09-24T13:10:29;49642.94;;;-134.68
12409;BMP180;6268;48.188;17.134;2022-09-24T13:12:59;49642.94;;;-134.68
12409;BMP180;6268;48.188;17.134;2022-09-24T13:15:34;49641.00;;;-134.68
12409;BMP180;6268;48.188;17.134;2022-09-24T13:18:20;49641.00;;;-134.68
12409;BMP180;6268;48.188;17.134;2022-09-24T13:21:01;49642.94;;;-134.68
12409;BMP180;6268;48.188;17.134;2022-09-24T13:23:47;49642.94;;;-134.68
12409;BMP180;6268;48.188;17.134;2022-09-24T13:26:32;49642.94;;;-134.68
12409;BMP180;6268;48.188;17.134;2022-09-24T13:29:19;49644.88;;;-134.68
12409;BMP180;6268;48.188;17.134;2022-09-24T13:31:55;49641.00;;;-134.68
12409;BMP180;6268;48.188;17.134;2022-09-24T13:34:28;49644.88;;;-134.68
12409;BMP180;6268;48.188;17.134;2022-09-24T13:37:01;49642.94;;;-134.68
12409;BMP180;6268;48.188;17.134;2022-09-24T13:39:41;49641.00;;;-134.68
12409;BMP180;6268;48.188;17.134;2022-09-24T13:42:18;49641.00;;;-134.68
12409;BMP180;6268;48.188;17.134;2022-09-24T13:44:53;49642.94;;;-134.68
12409;BMP180;6268;48.188;17.134;2022-09-24T13:47:33;49641.00;;;-134.68
12409;BMP180;6268;48.188;17.134;2022-09-24T13:50:14;49642.94;;;-134.68
12409;BMP180;6268;48.188;17.134;2022-09-24T13:52:48;49642.94;;;-134.68
12409;BMP180;6268;48.188;17.134;2022-09-24T13:55:23;49642.94;;;-134.68
12409;BMP180;6268;48.188;17.134;2022-09-24T13:57:53;49642.94;;;-134.68
12409;BMP180;6268;48.188;17.134;2022-09-24T14:00:25;49641.00;;;-134.68
12409;BMP180;6268;48.188;17.134;2022-09-24T14:03:01;49639.06;;;-134.68
12409;BMP180;6268;48.188;17.134;2022-09-24T14:05:34;49646.84;;;-134.68
12409;BMP180;6268;48.188;17.134;2022-09-24T14:08:07;49642.94;;;-134.68
12409;BMP180;6268;48.188;17.134;2022-09-24T14:10:38;49642.94;;;-134.68
12409;BMP180;6268;48.188;17.134;2022-09-24T14:13:15;49642.94;;;-134.68
12409;BMP180;6268;48.188;17.134;2022-09-24T14:15:53;49641.00;;;-134.68
12409;BMP180;6268;48.188;17.134;2022-09-24T14:18:24;49642.94;;;-134.68
12409;BMP180;6268;48.188;17.134;2022-09-24T14:21:01;49642.94;;;-134.68
12409;BMP180;6268;48.188;17.134;2022-09-24T14:23:41;49641.00;;;-134.68
12409;BMP180;6268;48.188;17.134;2022-09-24T14:26:24;49642.94;;;-134.68
12409;BMP180;6268;48.188;17.134;2022-09-24T14:28:56;49641.00;;;-134.68
12409;BMP180;6268;48.188;17.134;2022-09-24T14:31:25;49642.94;;;-134.68